createdAt,value
2018-07-10T00:00:08.643Z,15.80
2018-07-10T00:02:42.431Z,15.60
2018-07-10T00:06:38.496Z,15.40
2018-07-10T00:09:09.601Z,15.40
2018-07-10T00:11:37.857Z,15.40
2018-07-10T00:14:06.046Z,15.50
2018-07-10T00:16:34.258Z,15.50
2018-07-10T00:19:02.510Z,15.60
2018-07-10T00:21:30.784Z,15.60
2018-07-10T00:23:59.024Z,15.60
2018-07-10T00:26:27.221Z,15.60
2018-07-10T00:28:55.497Z,15.60
2018-07-10T00:31:23.751Z,15.60
2018-07-10T00:33:52.057Z,15.40
2018-07-10T00:36:20.401Z,15.50
2018-07-10T00:38:54.237Z,15.60
2018-07-10T00:41:27.569Z,15.70
2018-07-10T00:46:25.285Z,15.60
2018-07-10T00:48:53.469Z,15.50
2018-07-10T00:51:23.459Z,15.50
2018-07-10T00:53:52.495Z,15.40
2018-07-10T00:56:20.748Z,15.50
2018-07-10T00:58:50.321Z,15.60
2018-07-10T01:01:19.156Z,15.60
2018-07-10T01:03:47.636Z,15.50
2018-07-10T01:06:16.025Z,15.40
2018-07-10T01:08:44.612Z,15.40
2018-07-10T01:11:15.955Z,15.50
2018-07-10T01:13:45.256Z,15.10
2018-07-10T01:16:14.687Z,15.00
2018-07-10T01:18:46.446Z,15.10
2018-07-10T01:21:18.493Z,15.10
2018-07-10T01:23:50.015Z,15.10
2018-07-10T01:26:18.303Z,15.10
2018-07-10T01:28:46.544Z,15.00
2018-07-10T01:31:14.815Z,14.90
2018-07-10T01:33:43.156Z,15.00
2018-07-10T01:36:11.335Z,14.90
2018-07-10T01:41:07.543Z,14.80
2018-07-10T01:43:35.925Z,14.80
2018-07-10T01:46:04.127Z,14.80
2018-07-10T01:48:32.339Z,14.90
2018-07-10T01:51:00.592Z,14.90
2018-07-10T01:53:29.155Z,15.00
2018-07-10T01:55:57.597Z,15.10
2018-07-10T01:58:25.973Z,15.10
2018-07-10T02:00:54.218Z,15.10
2018-07-10T02:03:22.858Z,15.10
2018-07-10T02:05:51.150Z,15.00
2018-07-10T02:08:19.386Z,14.90
2018-07-10T02:10:47.635Z,14.90
2018-07-10T02:13:15.852Z,15.10
2018-07-10T02:15:44.935Z,15.00
2018-07-10T02:18:13.275Z,15.00
2018-07-10T02:20:45.067Z,14.80
2018-07-10T02:23:13.308Z,14.80
2018-07-10T02:25:41.558Z,14.80
2018-07-10T02:28:10.009Z,14.80
2018-07-10T02:30:38.290Z,15.00
2018-07-10T02:33:06.560Z,15.00
2018-07-10T02:35:35.915Z,15.00
2018-07-10T02:38:04.246Z,15.00
2018-07-10T02:40:32.929Z,15.00
2018-07-10T02:43:01.199Z,15.00
2018-07-10T02:45:29.470Z,15.20
2018-07-10T02:47:57.696Z,15.10
2018-07-10T02:50:26.112Z,15.10
2018-07-10T02:52:54.446Z,15.20
2018-07-10T02:55:22.878Z,15.20
2018-07-10T02:57:51.118Z,14.90
2018-07-10T03:00:19.385Z,14.90
2018-07-10T03:02:48.137Z,14.80
2018-07-10T03:05:16.527Z,14.80
2018-07-10T03:07:44.847Z,14.60
2018-07-10T03:10:13.102Z,14.60
2018-07-10T03:12:41.922Z,14.60
2018-07-10T03:15:11.684Z,14.60
2018-07-10T03:17:40.114Z,14.50
2018-07-10T03:20:08.936Z,14.60
2018-07-10T03:22:37.603Z,14.70
2018-07-10T03:25:06.351Z,14.70
2018-07-10T03:27:34.646Z,14.50
2018-07-10T03:30:03.580Z,14.40
2018-07-10T03:32:32.099Z,14.40
2018-07-10T03:35:00.353Z,14.30
2018-07-10T03:37:28.535Z,14.20
2018-07-10T03:39:56.874Z,14.00
2018-07-10T03:42:25.450Z,14.10
2018-07-10T03:44:53.918Z,14.10
2018-07-10T03:47:22.614Z,14.10
2018-07-10T03:49:51.490Z,14.20
2018-07-10T03:52:25.821Z,14.40
2018-07-10T03:54:55.044Z,14.50
2018-07-10T03:57:23.806Z,14.60
2018-07-10T04:00:02.994Z,14.60
2018-07-10T04:02:31.207Z,14.80
2018-07-10T04:04:59.435Z,14.70
2018-07-10T04:07:27.756Z,14.70
2018-07-10T04:09:56.280Z,14.80
2018-07-10T04:12:27.989Z,14.80
2018-07-10T04:14:56.201Z,14.80
2018-07-10T04:17:28.893Z,14.50
2018-07-10T04:19:57.230Z,14.60
2018-07-10T04:22:25.713Z,14.40
2018-07-10T04:24:53.919Z,14.50
2018-07-10T04:27:26.567Z,14.60
2018-07-10T04:29:59.030Z,14.70
2018-07-10T04:32:27.297Z,14.60
2018-07-10T04:34:55.614Z,14.60
2018-07-10T04:37:23.898Z,14.60
2018-07-10T04:39:52.389Z,14.70
2018-07-10T04:44:59.930Z,14.70
2018-07-10T04:47:29.279Z,14.70
2018-07-10T04:50:00.967Z,14.70
2018-07-10T04:52:30.396Z,14.90
2018-07-10T04:55:00.835Z,15.00
2018-07-10T04:57:32.007Z,15.90
2018-07-10T05:00:03.236Z,16.80
2018-07-10T05:02:31.514Z,16.80
2018-07-10T05:04:59.908Z,16.90
2018-07-10T05:07:28.314Z,16.90
2018-07-10T05:09:56.523Z,16.80
2018-07-10T05:12:24.769Z,18.10
2018-07-10T05:14:53.034Z,19.70
2018-07-10T05:17:21.386Z,20.40
2018-07-10T05:19:49.645Z,20.00
2018-07-10T05:22:17.964Z,20.10
2018-07-10T05:24:46.520Z,21.20
2018-07-10T05:27:15.109Z,20.80
2018-07-10T05:29:43.783Z,20.10
2018-07-10T05:32:13.126Z,19.00
2018-07-10T05:34:41.510Z,18.80
2018-07-10T05:37:10.792Z,17.90
2018-07-10T05:39:42.626Z,17.00
2018-07-10T05:42:10.891Z,17.10
2018-07-10T05:44:39.152Z,17.30
2018-07-10T05:47:08.407Z,17.40
2018-07-10T05:49:37.593Z,16.30
2018-07-10T05:52:05.857Z,16.00
2018-07-10T05:54:34.849Z,15.80
2018-07-10T05:57:03.440Z,15.60
2018-07-10T05:59:31.654Z,15.70
2018-07-10T06:01:59.906Z,15.70
2018-07-10T06:04:28.245Z,15.50
2018-07-10T06:06:56.688Z,15.50
2018-07-10T06:09:25.112Z,15.70
2018-07-10T06:11:53.329Z,15.50
2018-07-10T06:14:21.641Z,15.30
2018-07-10T06:16:51.148Z,15.40
2018-07-10T06:19:19.491Z,15.70
2018-07-10T06:21:47.884Z,15.70
2018-07-10T06:24:17.764Z,15.90
2018-07-10T06:26:48.472Z,16.00
2018-07-10T06:29:19.564Z,16.30
2018-07-10T06:31:51.043Z,16.30
2018-07-10T06:34:19.950Z,16.10
2018-07-10T06:36:52.590Z,15.80
2018-07-10T06:39:20.778Z,15.80
2018-07-10T06:41:51.337Z,15.70
2018-07-10T06:44:20.664Z,15.80
2018-07-10T06:46:54.758Z,15.80
2018-07-10T06:49:30.084Z,16.00
2018-07-10T06:52:02.159Z,16.20
2018-07-10T06:54:30.761Z,15.90
2018-07-10T06:56:59.922Z,15.80
2018-07-10T06:59:28.429Z,15.70
2018-07-10T07:01:56.844Z,15.70
2018-07-10T07:04:25.120Z,15.90
2018-07-10T07:06:53.907Z,15.70
2018-07-10T07:09:23.065Z,15.60
2018-07-10T07:11:51.301Z,15.70
2018-07-10T07:14:19.558Z,15.80
2018-07-10T07:16:47.783Z,15.80
2018-07-10T07:19:16.275Z,15.80
2018-07-10T07:21:44.605Z,15.80
2018-07-10T07:24:13.317Z,15.50
2018-07-10T07:26:41.667Z,15.50
2018-07-10T07:29:09.991Z,15.70
2018-07-10T07:31:38.243Z,15.70
2018-07-10T07:34:06.583Z,15.50
2018-07-10T07:36:34.992Z,15.40
2018-07-10T07:39:04.592Z,15.40
2018-07-10T07:41:32.847Z,15.20
2018-07-10T07:44:01.314Z,15.40
2018-07-10T07:46:29.650Z,15.40
2018-07-10T07:48:57.963Z,15.40
2018-07-10T07:51:26.367Z,15.20
2018-07-10T07:53:54.699Z,15.30
2018-07-10T07:56:22.956Z,15.30
2018-07-10T07:58:51.242Z,15.50
2018-07-10T08:01:19.557Z,15.60
2018-07-10T08:03:47.834Z,15.70
2018-07-10T08:06:16.074Z,15.70
2018-07-10T08:08:44.401Z,15.80
2018-07-10T08:11:13.447Z,15.90
2018-07-10T08:13:42.815Z,16.00
2018-07-10T08:16:11.148Z,16.00
2018-07-10T08:18:39.421Z,16.00
2018-07-10T08:21:07.634Z,16.00
2018-07-10T08:23:35.987Z,15.70
2018-07-10T08:26:04.322Z,15.90
2018-07-10T08:28:32.595Z,15.90
2018-07-10T08:31:01.872Z,15.50
2018-07-10T08:33:30.189Z,15.60
2018-07-10T08:35:58.547Z,15.60
2018-07-10T08:38:42.174Z,15.30
2018-07-10T08:41:15.552Z,15.20
2018-07-10T08:43:43.999Z,15.00
2018-07-10T08:46:13.005Z,15.10
2018-07-10T08:48:41.590Z,15.10
2018-07-10T08:51:09.847Z,15.10
2018-07-10T08:53:38.267Z,15.10
2018-07-10T08:56:06.547Z,15.10
2018-07-10T08:58:34.921Z,14.90
2018-07-10T09:01:03.480Z,14.80
2018-07-10T09:03:32.382Z,14.80
2018-07-10T09:06:01.205Z,14.90
2018-07-10T09:08:29.611Z,14.70
2018-07-10T09:10:57.972Z,14.70
2018-07-10T09:13:26.532Z,14.70
2018-07-10T09:15:54.918Z,14.70
2018-07-10T09:18:23.287Z,14.50
2018-07-10T09:20:52.391Z,14.60
2018-07-10T09:23:21.409Z,14.40
2018-07-10T09:25:52.733Z,14.70
2018-07-10T09:28:21.273Z,15.00
2018-07-10T09:30:50.177Z,15.00
2018-07-10T09:33:18.486Z,15.10
2018-07-10T09:35:46.777Z,15.10
2018-07-10T09:38:15.042Z,14.90
2018-07-10T09:40:44.871Z,15.00
2018-07-10T09:43:13.135Z,15.00
2018-07-10T09:45:41.402Z,14.70
2018-07-10T09:48:10.256Z,14.90
2018-07-10T09:50:39.066Z,15.00
2018-07-10T09:53:07.450Z,14.90
2018-07-10T09:55:35.860Z,14.70
2018-07-10T09:58:04.131Z,14.50
2018-07-10T10:00:37.978Z,14.50
2018-07-10T10:03:06.322Z,14.40
2018-07-10T10:05:36.498Z,14.40
2018-07-10T10:08:04.728Z,14.20
2018-07-10T10:10:32.966Z,14.40
2018-07-10T10:13:01.229Z,14.40
2018-07-10T10:15:32.898Z,14.30
2018-07-10T10:18:02.607Z,14.50
2018-07-10T10:20:30.994Z,14.60
2018-07-10T10:22:59.836Z,14.70
2018-07-10T10:25:28.138Z,14.60
2018-07-10T10:27:56.451Z,14.50
2018-07-10T10:30:24.865Z,14.30
2018-07-10T10:32:53.199Z,14.10
2018-07-10T10:35:21.428Z,14.10
2018-07-10T10:37:49.711Z,14.00
2018-07-10T10:40:18.267Z,14.00
2018-07-10T10:42:46.736Z,13.90
2018-07-10T10:45:15.159Z,14.10
2018-07-10T10:47:43.552Z,14.10
2018-07-10T10:50:12.020Z,14.20
2018-07-10T10:52:40.305Z,14.10
2018-07-10T10:55:08.555Z,14.10
2018-07-10T10:57:37.742Z,14.20
2018-07-10T11:00:06.458Z,14.20
2018-07-10T11:02:35.019Z,14.20
2018-07-10T11:05:03.326Z,14.20
2018-07-10T11:07:31.785Z,14.40
2018-07-10T11:10:00.172Z,14.40
2018-07-10T11:12:29.635Z,14.60
2018-07-10T11:14:58.142Z,14.60
2018-07-10T11:17:30.304Z,14.70
2018-07-10T11:22:12.134Z,14.80
2018-07-10T11:24:42.659Z,14.90
2018-07-10T11:27:13.025Z,14.70
2018-07-10T11:29:41.437Z,14.60
2018-07-10T11:32:09.848Z,14.30
2018-07-10T11:34:38.120Z,14.30
2018-07-10T11:37:06.541Z,14.30
2018-07-10T11:39:34.977Z,14.30
2018-07-10T11:42:03.261Z,14.50
2018-07-10T11:44:31.635Z,14.40
2018-07-10T11:47:00.097Z,14.20
2018-07-10T11:49:28.483Z,14.30
2018-07-10T11:51:56.885Z,14.50
2018-07-10T11:54:25.154Z,14.50
2018-07-10T11:56:53.450Z,14.40
2018-07-10T11:59:21.702Z,14.10
2018-07-10T12:01:50.025Z,14.20
2018-07-10T12:04:18.358Z,14.20
2018-07-10T12:06:48.340Z,14.30
2018-07-10T12:09:16.947Z,14.40
2018-07-10T12:11:45.386Z,14.50
2018-07-10T12:14:13.721Z,14.50
2018-07-10T12:16:42.104Z,14.50
2018-07-10T12:19:10.387Z,14.60
2018-07-10T12:21:38.829Z,14.70
2018-07-10T12:24:07.121Z,14.70
2018-07-10T12:26:35.643Z,14.90
2018-07-10T12:29:04.182Z,15.00
2018-07-10T12:31:32.405Z,15.30
2018-07-10T12:34:00.671Z,15.60
2018-07-10T12:36:29.001Z,16.00
2018-07-10T12:38:57.368Z,16.20
2018-07-10T12:41:25.761Z,16.00
2018-07-10T12:43:54.070Z,16.20
2018-07-10T12:46:22.349Z,16.30
2018-07-10T12:48:50.700Z,16.00
2018-07-10T12:51:19.062Z,15.90
2018-07-10T12:53:47.469Z,15.90
2018-07-10T12:56:16.346Z,15.50
2018-07-10T12:58:44.744Z,15.60
2018-07-10T13:01:13.196Z,15.80
2018-07-10T13:03:41.585Z,15.80
2018-07-10T13:06:09.888Z,15.50
2018-07-10T13:08:38.210Z,15.60
2018-07-10T13:11:06.500Z,15.50
2018-07-10T13:13:34.907Z,15.30
2018-07-10T13:16:03.208Z,15.30
2018-07-10T13:18:32.916Z,15.50
2018-07-10T13:21:01.234Z,15.50
2018-07-10T13:23:29.760Z,15.50
2018-07-10T13:25:58.033Z,15.50
2018-07-10T13:28:26.524Z,15.60
2018-07-10T13:30:55.087Z,15.70
2018-07-10T13:33:23.362Z,15.60
2018-07-10T13:35:51.780Z,16.00
2018-07-10T13:38:21.176Z,16.20
2018-07-10T13:40:50.322Z,16.20
2018-07-10T13:43:19.535Z,16.40
2018-07-10T13:45:47.900Z,16.50
2018-07-10T13:48:16.421Z,16.30
2018-07-10T13:50:44.882Z,16.40
2018-07-10T13:53:13.233Z,16.20
2018-07-10T13:55:41.554Z,16.30
2018-07-10T13:58:12.070Z,16.20
2018-07-10T14:00:42.516Z,16.30
2018-07-10T14:03:10.958Z,16.30
2018-07-10T14:05:39.661Z,16.00
2018-07-10T14:08:07.934Z,15.90
2018-07-10T14:10:36.261Z,15.80
2018-07-10T14:13:05.794Z,16.00
2018-07-10T14:15:34.323Z,16.00
2018-07-10T14:18:02.664Z,16.20
2018-07-10T14:20:32.908Z,16.40
2018-07-10T14:25:29.239Z,16.70
2018-07-10T14:27:57.548Z,16.80
2018-07-10T14:30:25.885Z,16.80
2018-07-10T14:32:54.182Z,16.90
2018-07-10T14:35:23.253Z,17.00
2018-07-10T14:37:51.662Z,17.00
2018-07-10T14:40:19.964Z,16.90
2018-07-10T14:42:49.504Z,17.00
2018-07-10T14:45:17.829Z,16.90
2018-07-10T14:47:46.572Z,16.70
2018-07-10T14:50:14.972Z,16.70
2018-07-10T14:52:43.420Z,16.70
2018-07-10T14:55:11.751Z,16.60
2018-07-10T14:57:40.180Z,16.50
2018-07-10T15:00:08.983Z,16.30
2018-07-10T15:02:37.227Z,16.50
2018-07-10T15:05:05.695Z,16.50
2018-07-10T15:07:34.045Z,16.60
2018-07-10T15:10:02.399Z,16.70
2018-07-10T15:12:30.703Z,16.60
2018-07-10T15:14:59.224Z,16.70
2018-07-10T15:17:32.718Z,16.80
2018-07-10T15:20:01.308Z,16.60
2018-07-10T15:22:29.746Z,16.60
2018-07-10T15:24:58.210Z,16.50
2018-07-10T15:27:26.988Z,16.40
2018-07-10T15:29:55.247Z,16.20
2018-07-10T15:32:23.743Z,16.00
2018-07-10T15:34:52.118Z,16.00
2018-07-10T15:37:21.202Z,15.90
2018-07-10T15:39:49.708Z,15.90
2018-07-10T15:42:17.984Z,15.90
2018-07-10T15:44:46.379Z,15.90
2018-07-10T15:47:14.709Z,15.90
2018-07-10T15:49:43.103Z,15.90
2018-07-10T15:52:11.489Z,15.80
2018-07-10T15:54:39.765Z,15.80
2018-07-10T15:57:08.383Z,15.90
2018-07-10T15:59:36.918Z,15.90
2018-07-10T16:02:05.390Z,15.90
2018-07-10T16:04:33.785Z,15.60
2018-07-10T16:07:03.011Z,15.60
2018-07-10T16:09:31.463Z,15.70
2018-07-10T16:12:01.905Z,15.60
2018-07-10T16:14:30.502Z,15.60
2018-07-10T16:16:59.362Z,15.40
2018-07-10T16:19:32.722Z,15.30
2018-07-10T16:22:06.201Z,15.00
2018-07-10T16:24:35.244Z,14.90
2018-07-10T16:27:03.584Z,14.70
2018-07-10T16:29:31.977Z,14.50
2018-07-10T16:32:01.077Z,14.40
2018-07-10T16:34:29.472Z,14.30
2018-07-10T16:36:57.917Z,14.30
2018-07-10T16:39:26.367Z,14.40
2018-07-10T16:42:00.240Z,14.50
2018-07-10T16:44:28.611Z,14.50
2018-07-10T16:47:02.125Z,14.60
2018-07-10T16:49:33.387Z,14.60
2018-07-10T16:53:08.008Z,14.70
2018-07-10T16:55:36.559Z,14.60
2018-07-10T16:58:04.925Z,14.70
2018-07-10T17:00:33.265Z,14.80
2018-07-10T17:03:01.804Z,14.90
2018-07-10T17:05:30.219Z,14.90
2018-07-10T17:07:58.517Z,15.00
2018-07-10T17:10:26.986Z,15.00
2018-07-10T17:12:55.358Z,14.90
2018-07-10T17:15:23.892Z,14.80
2018-07-10T17:17:52.218Z,14.90
2018-07-10T17:20:20.704Z,14.80
2018-07-10T17:22:48.952Z,14.80
2018-07-10T17:25:17.616Z,14.70
2018-07-10T17:27:49.790Z,14.70
2018-07-10T17:30:18.302Z,14.70
2018-07-10T17:32:46.941Z,14.70
2018-07-10T17:35:15.416Z,14.70
2018-07-10T17:37:44.887Z,14.70
2018-07-10T17:40:13.595Z,14.70
2018-07-10T17:42:42.089Z,14.80
2018-07-10T17:45:11.179Z,14.90
2018-07-10T17:47:40.085Z,15.10
2018-07-10T17:50:08.573Z,15.30
2018-07-10T17:52:37.320Z,15.40
2018-07-10T17:55:05.715Z,15.50
2018-07-10T17:57:35.814Z,15.60
2018-07-10T18:00:04.793Z,15.50
2018-07-10T18:02:33.491Z,15.60
2018-07-10T18:05:01.884Z,15.70
2018-07-10T18:07:30.233Z,15.70
2018-07-10T18:09:58.506Z,15.60
2018-07-10T18:12:27.305Z,15.50
2018-07-10T18:14:55.851Z,15.40
2018-07-10T18:17:24.313Z,15.40
2018-07-10T18:19:52.844Z,15.30
2018-07-10T18:22:21.491Z,15.20
2018-07-10T18:24:50.058Z,15.20
2018-07-10T18:27:18.579Z,15.10
2018-07-10T18:29:47.023Z,15.00
2018-07-10T18:32:15.489Z,15.00
2018-07-10T18:34:43.952Z,14.90
2018-07-10T18:39:40.351Z,14.80
2018-07-10T18:42:09.073Z,14.80
2018-07-10T18:44:37.563Z,14.80
2018-07-10T18:47:05.877Z,14.70
2018-07-10T18:49:34.663Z,14.70
2018-07-10T18:52:02.955Z,14.60
2018-07-10T18:54:32.317Z,14.60
2018-07-10T18:57:01.016Z,14.60
2018-07-10T18:59:30.575Z,14.50
2018-07-10T19:02:00.387Z,14.50
2018-07-10T19:04:31.771Z,14.40
2018-07-10T19:07:00.183Z,14.40
2018-07-10T19:09:33.938Z,14.40
2018-07-10T19:12:03.301Z,14.40
2018-07-10T19:14:31.869Z,14.40
2018-07-10T19:17:00.301Z,14.40
2018-07-10T19:19:28.900Z,14.50
2018-07-10T19:22:05.594Z,14.60
2018-07-10T19:24:34.580Z,14.50
2018-07-10T19:27:03.633Z,14.40
2018-07-10T19:29:41.990Z,14.30
2018-07-10T19:32:10.476Z,14.40
2018-07-10T19:34:38.830Z,14.40
2018-07-10T19:37:07.222Z,14.30
2018-07-10T19:39:35.595Z,14.30
2018-07-10T19:42:05.162Z,14.20
2018-07-10T19:44:33.692Z,14.20
2018-07-10T19:47:02.216Z,14.20
2018-07-10T19:49:32.464Z,14.20
2018-07-10T19:52:01.073Z,14.20
2018-07-10T19:54:29.454Z,14.20
2018-07-10T19:56:58.414Z,14.20
2018-07-10T19:59:26.752Z,14.20
2018-07-10T20:02:00.512Z,14.10
2018-07-10T20:04:30.508Z,14.10
2018-07-10T20:07:04.363Z,14.00
2018-07-10T20:09:35.455Z,14.00
2018-07-10T20:12:05.721Z,14.00
2018-07-10T20:14:35.640Z,14.00
2018-07-10T20:17:05.278Z,13.90
2018-07-10T20:19:45.678Z,13.80
2018-07-10T20:22:47.437Z,13.70
2018-07-10T20:25:17.903Z,13.70
2018-07-10T20:27:47.792Z,13.60
2018-07-10T20:30:26.141Z,13.60
2018-07-10T20:33:07.762Z,13.50
2018-07-10T20:35:36.073Z,13.40
2018-07-10T20:38:04.453Z,13.30
2018-07-10T20:40:35.478Z,13.40
2018-07-10T20:43:04.884Z,13.40
2018-07-10T20:45:33.362Z,13.40
2018-07-10T20:48:01.874Z,13.40
2018-07-10T20:50:32.502Z,13.40
2018-07-10T20:53:02.710Z,13.40
2018-07-10T20:55:32.978Z,13.40
2018-07-10T20:58:03.832Z,13.40
2018-07-10T21:00:36.298Z,13.40
2018-07-10T21:03:05.743Z,13.40
2018-07-10T21:05:36.019Z,13.40
2018-07-10T21:08:12.564Z,13.40
2018-07-10T21:10:43.042Z,13.30
2018-07-10T21:13:14.263Z,13.30
2018-07-10T21:15:46.189Z,13.20
2018-07-10T21:18:19.007Z,13.20
2018-07-10T21:20:52.303Z,13.20
2018-07-10T21:23:21.778Z,13.20
2018-07-10T21:25:52.789Z,13.10
2018-07-10T21:28:29.382Z,13.20
2018-07-10T21:32:01.226Z,13.30
2018-07-10T21:34:47.519Z,13.40
2018-07-10T21:37:23.385Z,13.40
2018-07-10T21:39:59.790Z,13.40
2018-07-10T21:46:00.142Z,13.50
2018-07-10T21:48:30.219Z,13.60
2018-07-10T21:50:58.609Z,13.60
2018-07-10T21:53:26.855Z,13.70
2018-07-10T21:55:55.164Z,13.70
2018-07-10T21:58:23.659Z,13.70
2018-07-10T22:02:06.176Z,13.70
2018-07-10T22:04:35.695Z,13.60
2018-07-10T22:07:06.795Z,13.60
2018-07-10T22:09:36.510Z,13.60
2018-07-10T22:12:08.239Z,13.50
2018-07-10T22:14:36.569Z,13.50
2018-07-10T22:17:06.970Z,13.50
2018-07-10T22:19:37.214Z,13.60
2018-07-10T22:22:05.541Z,13.60
2018-07-10T22:24:33.943Z,13.60
2018-07-10T22:27:02.195Z,13.50
2018-07-10T22:29:35.987Z,13.60
2018-07-10T22:32:09.793Z,13.60
2018-07-10T22:34:39.621Z,13.50
2018-07-10T22:37:08.006Z,13.50
2018-07-10T22:39:36.271Z,13.70
2018-07-10T22:42:04.680Z,13.80
2018-07-10T22:44:34.814Z,13.70
2018-07-10T22:47:03.099Z,13.80
2018-07-10T22:49:31.829Z,13.90
2018-07-10T22:52:01.343Z,13.90
2018-07-10T22:54:30.584Z,14.00
2018-07-10T22:56:58.911Z,14.00
2018-07-10T22:59:27.123Z,13.80
2018-07-10T23:01:55.490Z,13.70
2018-07-10T23:04:23.750Z,13.70
2018-07-10T23:06:52.424Z,13.70
2018-07-10T23:09:20.940Z,13.80
2018-07-10T23:11:49.134Z,13.80
2018-07-10T23:16:45.288Z,13.80
2018-07-10T23:19:13.542Z,13.70
2018-07-10T23:21:42.157Z,13.70
2018-07-10T23:24:10.702Z,13.60
2018-07-10T23:26:39.996Z,13.70
2018-07-10T23:29:08.361Z,13.70
2018-07-10T23:31:36.785Z,13.90
2018-07-10T23:34:06.547Z,13.90
2018-07-10T23:36:35.099Z,13.90
2018-07-10T23:39:06.389Z,13.80
2018-07-10T23:41:36.515Z,13.80
2018-07-10T23:44:05.965Z,13.80
2018-07-10T23:46:35.964Z,13.90
2018-07-10T23:49:09.586Z,13.90
2018-07-10T23:51:43.339Z,13.90
2018-07-10T23:54:11.699Z,14.00
2018-07-10T23:56:39.997Z,14.00
2018-07-10T23:59:08.251Z,14.10
